createdAt,value
2024-05-09T00:00:39.152Z,99.90
2024-05-09T00:03:08.269Z,99.90
2024-05-09T00:05:36.675Z,99.90
2024-05-09T00:08:04.086Z,99.90
2024-05-09T00:10:36.359Z,99.90
2024-05-09T00:13:06.367Z,99.90
2024-05-09T00:15:34.037Z,99.90
2024-05-09T00:18:01.755Z,99.90
2024-05-09T00:20:36.837Z,99.90
2024-05-09T00:23:07.483Z,99.90
2024-05-09T00:25:35.298Z,99.90
2024-05-09T00:28:02.707Z,99.90
2024-05-09T00:30:34.448Z,99.90
2024-05-09T00:33:08.168Z,99.90
2024-05-09T00:35:36.547Z,99.90
2024-05-09T00:38:03.872Z,99.90
2024-05-09T00:40:41.498Z,99.90
2024-05-09T00:43:11.886Z,99.90
2024-05-09T00:45:39.424Z,99.90
2024-05-09T00:48:08.562Z,99.90
2024-05-09T00:50:39.427Z,99.90
2024-05-09T00:53:07.850Z,99.90
2024-05-09T00:55:38.798Z,99.90
2024-05-09T00:58:07.538Z,99.90
2024-05-09T01:00:39.264Z,99.90
2024-05-09T01:03:10.641Z,99.90
2024-05-09T01:05:40.759Z,99.90
2024-05-09T01:08:09.021Z,99.90
2024-05-09T01:10:37.233Z,99.90
2024-05-09T01:13:04.940Z,99.90
2024-05-09T01:15:32.044Z,99.90
2024-05-09T01:18:01.412Z,99.90
2024-05-09T01:20:39.109Z,99.90
2024-05-09T01:23:09.742Z,99.90
2024-05-09T01:25:37.086Z,99.90
2024-05-09T01:28:04.141Z,99.90
2024-05-09T01:30:35.266Z,99.90
2024-05-09T01:33:05.691Z,99.90
2024-05-09T01:35:33.740Z,99.90
2024-05-09T01:38:00.566Z,99.90
2024-05-09T01:40:36.371Z,99.90
2024-05-09T01:43:06.479Z,99.90
2024-05-09T01:45:33.400Z,99.90
2024-05-09T01:48:00.489Z,99.90
2024-05-09T01:52:57.160Z,99.90
2024-05-09T01:55:24.006Z,99.90
2024-05-09T01:57:50.727Z,99.90
2024-05-09T02:00:26.230Z,99.90
2024-05-09T02:03:01.744Z,99.90
2024-05-09T02:05:28.882Z,99.90
2024-05-09T02:07:55.771Z,99.90
2024-05-09T02:10:26.583Z,99.90
2024-05-09T02:12:58.943Z,99.90
2024-05-09T02:15:25.651Z,99.90
2024-05-09T02:17:52.583Z,99.90
2024-05-09T02:20:29.947Z,99.90
2024-05-09T02:23:06.948Z,99.90
2024-05-09T02:25:34.213Z,99.90
2024-05-09T02:28:01.502Z,99.90
2024-05-09T02:32:57.957Z,99.90
2024-05-09T02:35:25.732Z,99.90
2024-05-09T02:37:52.576Z,99.90
2024-05-09T02:40:25.632Z,99.90
2024-05-09T02:43:00.867Z,99.90
2024-05-09T02:45:27.626Z,99.90
2024-05-09T02:47:54.706Z,99.90
2024-05-09T02:50:29.819Z,99.90
2024-05-09T02:53:03.729Z,99.90
2024-05-09T02:55:30.469Z,99.90
2024-05-09T02:57:57.216Z,99.90
2024-05-09T03:00:30.037Z,99.90
2024-05-09T03:03:05.615Z,99.90
2024-05-09T03:05:32.643Z,99.90
2024-05-09T03:07:59.519Z,99.90
2024-05-09T03:10:28.986Z,99.90
2024-05-09T03:13:05.398Z,99.90
2024-05-09T03:15:32.922Z,99.90
2024-05-09T03:18:00.761Z,99.90
2024-05-09T03:20:33.367Z,99.90
2024-05-09T03:23:02.531Z,99.90
2024-05-09T03:25:29.414Z,99.90
2024-05-09T03:27:56.468Z,99.90
2024-05-09T03:30:35.828Z,99.90
2024-05-09T03:33:10.874Z,99.90
2024-05-09T03:35:38.156Z,99.90
2024-05-09T03:38:05.105Z,99.90
2024-05-09T03:40:31.864Z,99.90
2024-05-09T03:42:58.814Z,99.90
2024-05-09T03:45:25.655Z,99.90
2024-05-09T03:47:52.882Z,99.90
2024-05-09T03:50:29.424Z,99.90
2024-05-09T03:53:00.832Z,99.90
2024-05-09T03:55:28.462Z,99.90
2024-05-09T03:57:55.206Z,99.90
2024-05-09T04:00:30.836Z,99.90
2024-05-09T04:03:04.450Z,99.90
2024-05-09T04:05:32.657Z,99.90
2024-05-09T04:07:59.653Z,99.90
2024-05-09T04:10:33.493Z,99.90
2024-05-09T04:13:01.803Z,99.90
2024-05-09T04:15:28.730Z,99.90
2024-05-09T04:17:55.983Z,99.90
2024-05-09T04:20:33.472Z,99.90
2024-05-09T04:23:13.861Z,99.90
2024-05-09T04:25:45.235Z,99.90
2024-05-09T04:28:12.710Z,99.90
2024-05-09T04:30:41.381Z,99.90
2024-05-09T04:33:13.991Z,99.90
2024-05-09T04:35:45.314Z,99.90
2024-05-09T04:38:15.862Z,99.90
2024-05-09T04:40:43.027Z,99.90
2024-05-09T04:43:18.713Z,99.90
2024-05-09T04:45:45.882Z,99.90
2024-05-09T04:48:12.929Z,99.90
2024-05-09T04:50:40.158Z,99.90
2024-05-09T04:53:09.981Z,99.90
2024-05-09T04:55:37.983Z,99.90
2024-05-09T04:58:06.942Z,99.90
2024-05-09T05:00:37.080Z,99.90
2024-05-09T05:03:08.050Z,99.90
2024-05-09T05:05:40.118Z,99.90
2024-05-09T05:08:18.055Z,99.90
2024-05-09T05:10:46.440Z,99.90
2024-05-09T05:13:23.708Z,99.90
2024-05-09T05:15:55.178Z,99.90
2024-05-09T05:18:22.722Z,99.90
2024-05-09T05:20:50.161Z,99.90
2024-05-09T05:23:20.693Z,99.90
2024-05-09T05:25:48.830Z,99.90
2024-05-09T05:28:16.642Z,99.90
2024-05-09T05:30:43.505Z,99.90
2024-05-09T05:33:12.022Z,99.90
2024-05-09T05:35:39.553Z,99.90
2024-05-09T05:38:08.177Z,99.90
2024-05-09T05:40:38.358Z,99.90
2024-05-09T05:43:08.493Z,99.90
2024-05-09T05:45:35.578Z,99.90
2024-05-09T05:48:05.460Z,99.90
2024-05-09T05:50:36.497Z,99.90
2024-05-09T05:53:09.127Z,99.90
2024-05-09T05:55:37.299Z,99.90
2024-05-09T05:58:04.200Z,99.90
2024-05-09T06:00:38.073Z,99.90
2024-05-09T06:03:11.436Z,99.90
2024-05-09T06:05:46.499Z,99.90
2024-05-09T06:08:13.485Z,99.90
2024-05-09T06:10:41.434Z,99.90
2024-05-09T06:13:12.746Z,99.90
2024-05-09T06:15:40.862Z,99.90
2024-05-09T06:18:09.259Z,99.90
2024-05-09T06:20:38.318Z,99.90
2024-05-09T06:23:06.641Z,99.90
2024-05-09T06:25:34.924Z,99.90
2024-05-09T06:28:02.062Z,99.90
2024-05-09T06:30:37.314Z,99.90
2024-05-09T06:33:07.819Z,99.90
2024-05-09T06:35:36.377Z,99.90
2024-05-09T06:38:03.338Z,99.90
2024-05-09T06:40:37.185Z,99.90
2024-05-09T06:43:11.280Z,99.90
2024-05-09T06:45:39.880Z,99.90
2024-05-09T06:48:08.458Z,99.90
2024-05-09T06:50:37.836Z,99.90
2024-05-09T06:53:06.565Z,99.90
2024-05-09T06:55:33.387Z,99.90
2024-05-09T06:58:00.155Z,99.90
2024-05-09T07:00:34.802Z,99.90
2024-05-09T07:03:16.983Z,99.90
2024-05-09T07:05:46.790Z,99.90
2024-05-09T07:08:14.733Z,99.90
2024-05-09T07:10:41.690Z,99.90
2024-05-09T07:13:13.054Z,99.90
2024-05-09T07:15:41.055Z,99.90
2024-05-09T07:18:11.761Z,99.90
2024-05-09T07:20:40.162Z,99.90
2024-05-09T07:23:10.711Z,99.90
2024-05-09T07:25:38.575Z,99.90
2024-05-09T07:28:05.673Z,99.90
2024-05-09T07:30:34.482Z,99.90
2024-05-09T07:33:03.051Z,99.90
2024-05-09T07:35:30.938Z,99.90
2024-05-09T07:37:58.246Z,99.90
2024-05-09T07:40:32.923Z,99.90
2024-05-09T07:43:07.637Z,99.90
2024-05-09T07:52:32.408Z,99.90
2024-05-09T07:55:54.071Z,99.90
2024-05-09T07:58:22.275Z,99.90
2024-05-09T08:00:49.824Z,99.90
2024-05-09T08:03:16.702Z,99.90
2024-05-09T08:05:43.654Z,99.90
2024-05-09T08:08:11.284Z,99.90
2024-05-09T08:10:38.215Z,99.90
2024-05-09T08:13:05.320Z,99.90
2024-05-09T08:15:32.246Z,99.90
2024-05-09T08:18:00.129Z,99.90
2024-05-09T08:20:31.233Z,99.90
2024-05-09T08:23:02.131Z,99.90
2024-05-09T08:25:28.918Z,99.90
2024-05-09T08:27:55.712Z,99.90
2024-05-09T08:30:30.032Z,99.90
2024-05-09T08:33:04.349Z,99.90
2024-05-09T08:35:31.776Z,99.90
2024-05-09T08:37:59.028Z,99.90
2024-05-09T08:40:33.388Z,99.90
2024-05-09T08:43:04.659Z,99.90
2024-05-09T08:45:33.431Z,99.90
2024-05-09T08:48:01.340Z,99.90
2024-05-09T08:50:35.956Z,99.90
2024-05-09T08:53:05.981Z,99.90
2024-05-09T08:55:33.295Z,99.90
2024-05-09T08:58:02.572Z,99.90
2024-05-09T09:00:36.776Z,99.90
2024-05-09T09:03:06.236Z,99.90
2024-05-09T09:05:37.887Z,99.90
2024-05-09T09:08:07.779Z,99.90
2024-05-09T09:10:35.424Z,99.90
2024-05-09T09:13:09.410Z,99.90
2024-05-09T09:15:50.221Z,99.90
2024-05-09T09:18:18.280Z,99.90
2024-05-09T09:20:45.561Z,99.90
2024-05-09T09:23:12.377Z,99.90
2024-05-09T09:25:40.013Z,99.90
2024-05-09T09:28:08.031Z,98.30
2024-05-09T09:30:38.890Z,97.90
2024-05-09T09:33:06.825Z,97.80
2024-05-09T09:35:35.876Z,96.30
2024-05-09T09:38:04.372Z,95.10
2024-05-09T09:40:37.105Z,95.80
2024-05-09T09:43:13.847Z,96.00
2024-05-09T09:45:43.226Z,95.80
2024-05-09T09:48:12.235Z,94.90
2024-05-09T09:50:41.356Z,94.10
2024-05-09T09:53:09.582Z,92.10
2024-05-09T09:55:37.740Z,91.20
2024-05-09T09:58:07.029Z,93.60
2024-05-09T10:00:35.555Z,92.80
2024-05-09T10:03:02.617Z,94.20
2024-05-09T10:05:30.270Z,94.70
2024-05-09T10:07:58.610Z,94.40
2024-05-09T10:10:32.038Z,93.50
2024-05-09T10:13:03.343Z,92.80
2024-05-09T10:15:41.799Z,93.80
2024-05-09T10:18:08.909Z,92.70
2024-05-09T10:20:46.068Z,92.80
2024-05-09T10:23:29.613Z,91.60
2024-05-09T10:26:05.212Z,90.70
2024-05-09T10:28:35.321Z,93.30
2024-05-09T10:31:09.625Z,92.90
2024-05-09T10:33:50.649Z,90.10
2024-05-09T10:36:24.866Z,90.20
2024-05-09T10:38:55.340Z,89.70
2024-05-09T10:41:23.576Z,89.90
2024-05-09T10:43:51.314Z,92.20
2024-05-09T10:46:21.219Z,91.90
2024-05-09T10:48:48.885Z,91.40
2024-05-09T10:51:18.074Z,92.30
2024-05-09T10:53:46.409Z,93.60
2024-05-09T10:56:14.057Z,93.80
2024-05-09T10:58:40.975Z,93.90
2024-05-09T11:01:09.050Z,94.60
2024-05-09T11:03:37.028Z,94.20
2024-05-09T11:06:05.325Z,93.30
2024-05-09T11:08:32.992Z,91.30
2024-05-09T11:11:00.170Z,92.00
2024-05-09T11:13:34.801Z,93.00
2024-05-09T11:16:02.542Z,94.90
2024-05-09T11:18:35.015Z,91.30
2024-05-09T11:21:12.701Z,90.80
2024-05-09T11:23:40.184Z,90.00
2024-05-09T11:26:07.448Z,92.10
2024-05-09T11:28:34.256Z,91.60
2024-05-09T11:31:08.905Z,90.50
2024-05-09T11:33:38.633Z,88.90
2024-05-09T11:36:06.876Z,91.00
2024-05-09T11:38:33.837Z,90.10
2024-05-09T11:41:01.945Z,87.90
2024-05-09T11:43:28.838Z,83.70
2024-05-09T11:45:56.929Z,85.90
2024-05-09T11:48:24.778Z,86.50
2024-05-09T11:50:51.752Z,81.80
2024-05-09T11:53:18.477Z,84.30
2024-05-09T11:55:45.292Z,86.20
2024-05-09T11:58:14.686Z,82.20
2024-05-09T12:00:41.480Z,83.90
2024-05-09T12:03:08.284Z,85.40
2024-05-09T12:05:35.332Z,83.70
2024-05-09T12:08:02.512Z,85.30
2024-05-09T12:10:33.798Z,80.00
2024-05-09T12:13:04.948Z,80.40
2024-05-09T12:15:33.930Z,86.30
2024-05-09T12:18:03.589Z,87.80
2024-05-09T12:20:36.809Z,88.90
2024-05-09T12:23:06.491Z,90.90
2024-05-09T12:25:33.574Z,81.50
2024-05-09T12:28:00.781Z,84.20
2024-05-09T12:30:36.139Z,83.20
2024-05-09T12:33:09.856Z,81.60
2024-05-09T12:35:37.242Z,83.60
2024-05-09T12:38:04.735Z,83.40
2024-05-09T12:40:36.344Z,80.30
2024-05-09T12:43:06.956Z,84.30
2024-05-09T12:45:34.166Z,84.60
2024-05-09T12:48:01.183Z,82.50
2024-05-09T12:50:32.940Z,84.60
2024-05-09T12:53:02.050Z,83.40
2024-05-09T12:55:33.970Z,79.20
2024-05-09T12:58:08.070Z,79.00
2024-05-09T13:00:35.964Z,78.70
2024-05-09T13:03:03.259Z,71.50
2024-05-09T13:05:30.416Z,75.50
2024-05-09T13:07:57.519Z,71.20
2024-05-09T13:10:31.282Z,75.70
2024-05-09T13:13:00.575Z,76.40
2024-05-09T13:15:27.807Z,75.00
2024-05-09T13:17:57.281Z,76.90
2024-05-09T13:20:32.079Z,73.70
2024-05-09T13:23:03.555Z,74.80
2024-05-09T13:25:30.599Z,74.10
2024-05-09T13:27:57.960Z,70.60
2024-05-09T13:30:33.664Z,69.10
2024-05-09T13:33:06.488Z,70.90
2024-05-09T13:35:36.520Z,71.90
2024-05-09T13:38:04.783Z,69.50
2024-05-09T13:40:34.935Z,69.10
2024-05-09T13:43:06.644Z,65.10
2024-05-09T13:45:34.919Z,67.90
2024-05-09T13:48:03.665Z,69.50
2024-05-09T13:50:34.762Z,67.50
2024-05-09T13:53:08.368Z,66.80
2024-05-09T13:55:38.326Z,68.70
2024-05-09T13:58:05.851Z,69.40
2024-05-09T14:00:43.816Z,68.90
2024-05-09T14:03:16.248Z,67.20
2024-05-09T14:05:44.018Z,67.40
2024-05-09T14:08:11.748Z,63.80
2024-05-09T14:10:44.498Z,67.80
2024-05-09T14:13:12.091Z,71.70
2024-05-09T14:15:39.164Z,69.90
2024-05-09T14:18:08.098Z,66.10
2024-05-09T14:20:36.227Z,69.30
2024-05-09T14:23:02.959Z,70.10
2024-05-09T14:25:31.690Z,66.50
2024-05-09T14:27:58.723Z,64.40
2024-05-09T14:30:34.170Z,65.40
2024-05-09T14:33:05.115Z,63.50
2024-05-09T14:35:32.306Z,65.70
2024-05-09T14:37:59.197Z,62.20
2024-05-09T14:40:36.521Z,62.00
2024-05-09T14:43:08.483Z,60.70
2024-05-09T14:45:35.631Z,60.60
2024-05-09T14:48:03.856Z,60.30
2024-05-09T14:50:36.318Z,59.40
2024-05-09T14:53:06.844Z,58.10
2024-05-09T14:55:36.696Z,59.70
2024-05-09T14:58:06.742Z,59.80
2024-05-09T15:00:36.567Z,58.50
2024-05-09T15:03:05.344Z,58.50
2024-05-09T15:05:32.322Z,60.80
2024-05-09T15:07:59.443Z,60.00
2024-05-09T15:10:33.881Z,56.50
2024-05-09T15:13:03.191Z,59.90
2024-05-09T15:15:30.632Z,60.80
2024-05-09T15:17:57.839Z,61.00
2024-05-09T15:20:32.991Z,59.00
2024-05-09T15:23:02.643Z,58.70
2024-05-09T15:25:29.720Z,59.30
2024-05-09T15:27:56.784Z,56.00
2024-05-09T15:32:53.605Z,53.70
2024-05-09T15:35:20.480Z,53.50
2024-05-09T15:37:48.359Z,52.80
2024-05-09T15:40:22.098Z,53.00
2024-05-09T15:42:57.894Z,53.90
2024-05-09T15:45:24.737Z,56.00
2024-05-09T15:47:51.614Z,55.80
2024-05-09T15:50:28.174Z,56.50
2024-05-09T15:53:02.418Z,56.40
2024-05-09T15:55:33.451Z,57.30
2024-05-09T15:58:01.225Z,57.50
2024-05-09T16:00:36.484Z,56.20
2024-05-09T16:03:07.143Z,53.60
2024-05-09T16:05:34.890Z,53.20
2024-05-09T16:08:02.235Z,55.10
2024-05-09T16:10:32.804Z,54.20
2024-05-09T16:13:02.162Z,53.40
2024-05-09T16:15:29.452Z,53.00
2024-05-09T16:17:56.326Z,54.30
2024-05-09T16:22:53.127Z,56.40
2024-05-09T16:25:20.023Z,56.00
2024-05-09T16:27:46.943Z,56.50
2024-05-09T16:30:21.271Z,58.20
2024-05-09T16:32:55.162Z,57.20
2024-05-09T16:35:22.064Z,59.10
2024-05-09T16:37:49.518Z,58.50
2024-05-09T16:40:25.295Z,59.10
2024-05-09T16:43:04.024Z,59.00
2024-05-09T16:45:31.158Z,59.50
2024-05-09T16:47:58.933Z,59.20
2024-05-09T16:50:31.059Z,60.40
2024-05-09T16:53:00.401Z,59.60
2024-05-09T16:55:27.360Z,60.30
2024-05-09T16:57:55.288Z,61.30
2024-05-09T17:00:31.543Z,60.50
2024-05-09T17:03:07.430Z,61.40
2024-05-09T17:05:35.231Z,62.20
2024-05-09T17:08:02.915Z,63.70
2024-05-09T17:10:33.400Z,64.60
2024-05-09T17:13:06.787Z,65.10
2024-05-09T17:15:35.265Z,63.90
2024-05-09T17:18:02.779Z,65.40
2024-05-09T17:20:34.254Z,66.00
2024-05-09T17:23:05.711Z,67.00
2024-05-09T17:25:33.323Z,67.80
2024-05-09T17:28:06.427Z,67.60
2024-05-09T17:30:39.070Z,69.90
2024-05-09T17:33:09.136Z,68.30
2024-05-09T17:35:37.356Z,68.30
2024-05-09T17:38:05.759Z,69.40
2024-05-09T17:40:35.920Z,68.70
2024-05-09T17:43:05.331Z,69.60
2024-05-09T17:45:33.027Z,68.80
2024-05-09T17:48:00.997Z,69.50
2024-05-09T17:50:34.939Z,69.90
2024-05-09T17:53:04.703Z,70.40
2024-05-09T17:55:31.908Z,71.50
2024-05-09T17:57:58.873Z,72.20
2024-05-09T18:00:36.040Z,73.00
2024-05-09T18:03:07.047Z,71.40
2024-05-09T18:05:36.153Z,72.30
2024-05-09T18:08:03.729Z,74.10
2024-05-09T18:10:36.445Z,73.70
2024-05-09T18:13:06.906Z,73.80
2024-05-09T18:15:34.152Z,74.40
2024-05-09T18:18:02.140Z,75.50
2024-05-09T18:20:38.013Z,74.80
2024-05-09T18:23:10.309Z,75.80
2024-05-09T18:25:37.180Z,76.50
2024-05-09T18:28:04.245Z,75.80
2024-05-09T18:30:34.590Z,78.10
2024-05-09T18:33:04.961Z,77.80
2024-05-09T18:35:33.053Z,78.60
2024-05-09T18:37:59.889Z,79.90
2024-05-09T18:40:33.308Z,78.70
2024-05-09T18:43:05.860Z,79.60
2024-05-09T18:45:34.063Z,80.50
2024-05-09T18:48:01.131Z,80.90
2024-05-09T18:50:34.535Z,81.70
2024-05-09T18:53:08.523Z,82.50
2024-05-09T18:55:35.656Z,83.70
2024-05-09T18:58:03.617Z,83.20
2024-05-09T19:00:35.320Z,84.00
2024-05-09T19:03:09.643Z,84.00
2024-05-09T19:05:39.160Z,83.20
2024-05-09T19:08:07.890Z,84.30
2024-05-09T19:10:36.372Z,86.30
2024-05-09T19:13:10.835Z,86.30
2024-05-09T19:15:40.466Z,88.40
2024-05-09T19:18:08.041Z,88.30
2024-05-09T19:20:36.510Z,89.00
2024-05-09T19:23:06.188Z,90.30
2024-05-09T19:25:33.519Z,90.50
2024-05-09T19:28:01.226Z,91.80
2024-05-09T19:30:36.896Z,91.60
2024-05-09T19:33:07.945Z,92.20
2024-05-09T19:35:34.894Z,93.90
2024-05-09T19:38:01.867Z,95.50
2024-05-09T19:40:32.039Z,97.60
2024-05-09T19:43:02.471Z,98.30
2024-05-09T19:45:29.960Z,99.10
2024-05-09T19:47:57.059Z,99.60
2024-05-09T19:50:32.247Z,99.70
2024-05-09T19:53:07.312Z,99.90
2024-05-09T19:55:34.764Z,99.90
2024-05-09T19:58:06.868Z,99.90
2024-05-09T20:00:36.916Z,99.90
2024-05-09T20:03:06.439Z,99.90
2024-05-09T20:05:33.719Z,99.90
2024-05-09T20:08:00.767Z,99.90
2024-05-09T20:10:32.176Z,99.90
2024-05-09T20:13:01.262Z,99.90
2024-05-09T20:15:28.078Z,99.90
2024-05-09T20:17:55.099Z,99.90
2024-05-09T20:20:33.002Z,99.90
2024-05-09T20:23:05.822Z,99.90
2024-05-09T20:25:32.583Z,99.90
2024-05-09T20:27:59.326Z,99.90
2024-05-09T20:30:31.826Z,99.90
2024-05-09T20:33:01.452Z,99.90
2024-05-09T20:35:31.855Z,99.90
2024-05-09T20:37:59.179Z,99.90
2024-05-09T20:40:31.975Z,99.90
2024-05-09T20:43:02.607Z,99.90
2024-05-09T20:45:29.317Z,99.90
2024-05-09T20:47:57.228Z,99.90
2024-05-09T20:50:35.079Z,99.90
2024-05-09T20:53:05.858Z,99.90
2024-05-09T20:55:32.640Z,99.90
2024-05-09T20:57:59.474Z,99.90
2024-05-09T21:00:35.115Z,99.90
2024-05-09T21:03:07.357Z,99.90
2024-05-09T21:05:35.153Z,99.90
2024-05-09T21:08:02.528Z,99.90
2024-05-09T21:10:32.914Z,99.90
2024-05-09T21:13:01.855Z,99.90
2024-05-09T21:15:29.454Z,99.90
2024-05-09T21:17:56.251Z,99.90
2024-05-09T21:20:28.832Z,99.90
2024-05-09T21:22:58.500Z,99.90
2024-05-09T21:25:25.433Z,99.90
2024-05-09T21:27:52.850Z,99.90
2024-05-09T21:30:31.373Z,99.90
2024-05-09T21:33:06.138Z,99.90
2024-05-09T21:35:33.008Z,99.90
2024-05-09T21:37:59.721Z,99.90
2024-05-09T21:40:33.484Z,99.90
2024-05-09T21:43:02.585Z,99.90
2024-05-09T21:45:29.566Z,99.90
2024-05-09T21:47:56.542Z,99.90
2024-05-09T21:50:31.288Z,99.90
2024-05-09T21:53:03.783Z,99.90
2024-05-09T21:55:30.562Z,99.90
2024-05-09T21:57:57.449Z,99.90
2024-05-09T22:00:32.258Z,99.90
2024-05-09T22:03:03.906Z,99.90
2024-05-09T22:05:31.092Z,99.90
2024-05-09T22:07:57.961Z,99.90
2024-05-09T22:10:30.748Z,99.90
2024-05-09T22:13:01.451Z,99.90
2024-05-09T22:15:28.434Z,99.90
2024-05-09T22:17:57.169Z,99.90
2024-05-09T22:20:33.095Z,99.90
2024-05-09T22:23:04.082Z,99.90
2024-05-09T22:25:32.103Z,99.90
2024-05-09T22:28:00.302Z,99.90
2024-05-09T22:30:35.572Z,99.90
2024-05-09T22:33:07.798Z,99.90
2024-05-09T22:35:34.848Z,99.90
2024-05-09T22:38:05.813Z,99.90
2024-05-09T22:40:42.340Z,99.90
2024-05-09T22:43:17.412Z,99.90
2024-05-09T22:45:44.615Z,99.90
2024-05-09T22:48:11.522Z,99.90
2024-05-09T22:50:38.348Z,99.90
2024-05-09T22:53:05.517Z,99.90
2024-05-09T22:55:32.576Z,99.90
2024-05-09T22:57:59.559Z,99.90
2024-05-09T23:00:31.457Z,99.90
2024-05-09T23:03:03.129Z,99.90
2024-05-09T23:05:32.084Z,99.90
2024-05-09T23:08:00.379Z,99.90
2024-05-09T23:10:32.499Z,99.90
2024-05-09T23:13:03.782Z,99.90
2024-05-09T23:15:30.881Z,99.90
2024-05-09T23:17:58.404Z,99.90
2024-05-09T23:20:35.445Z,99.90
2024-05-09T23:23:10.345Z,99.90
2024-05-09T23:25:38.478Z,99.90
2024-05-09T23:28:05.842Z,99.90
2024-05-09T23:30:37.934Z,99.90
2024-05-09T23:33:08.388Z,99.90
2024-05-09T23:35:35.595Z,99.90
2024-05-09T23:38:02.360Z,99.90
2024-05-09T23:42:58.829Z,99.90
2024-05-09T23:45:25.648Z,99.90
2024-05-09T23:47:52.947Z,99.90
2024-05-09T23:50:26.361Z,99.90
2024-05-09T23:52:59.441Z,99.90
2024-05-09T23:55:26.211Z,99.90
2024-05-09T23:57:52.988Z,99.90
